sensor_id;sensor_type;location;lat;lon;timestamp;P1;durP1;ratioP1;P2;durP2;ratioP2
27209;SDS011;14721;42.668;23.386;2024-01-10T00:00:23;8.90;;;2.53;;
27209;SDS011;14721;42.668;23.386;2024-01-10T00:02:49;8.60;;;2.53;;
27209;SDS011;14721;42.668;23.386;2024-01-10T00:05:33;4.60;;;2.43;;
27209;SDS011;14721;42.668;23.386;2024-01-10T00:08:07;8.03;;;2.60;;
27209;SDS011;14721;42.668;23.386;2024-01-10T00:10:55;7.50;;;2.47;;
27209;SDS011;14721;42.668;23.386;2024-01-10T00:13:23;3.83;;;1.60;;
27209;SDS011;14721;42.668;23.386;2024-01-10T00:15:51;5.00;;;1.87;;
27209;SDS011;14721;42.668;23.386;2024-01-10T00:18:36;3.70;;;1.70;;
27209;SDS011;14721;42.668;23.386;2024-01-10T00:21:25;5.93;;;2.57;;
27209;SDS011;14721;42.668;23.386;2024-01-10T00:24:11;3.43;;;1.53;;
27209;SDS011;14721;42.668;23.386;2024-01-10T00:26:54;4.97;;;1.73;;
27209;SDS011;14721;42.668;23.386;2024-01-10T00:29:37;6.40;;;1.60;;
27209;SDS011;14721;42.668;23.386;2024-01-10T00:32:05;2.53;;;0.97;;
27209;SDS011;14721;42.668;23.386;2024-01-10T00:34:34;3.03;;;1.70;;
27209;SDS011;14721;42.668;23.386;2024-01-10T00:37:06;6.27;;;2.17;;
27209;SDS011;14721;42.668;23.386;2024-01-10T00:39:54;2.73;;;2.03;;
27209;SDS011;14721;42.668;23.386;2024-01-10T00:42:24;3.13;;;1.80;;
27209;SDS011;14721;42.668;23.386;2024-01-10T00:45:00;3.23;;;1.10;;
27209;SDS011;14721;42.668;23.386;2024-01-10T00:47:25;4.23;;;2.23;;
27209;SDS011;14721;42.668;23.386;2024-01-10T00:49:51;4.40;;;1.87;;
27209;SDS011;14721;42.668;23.386;2024-01-10T00:52:29;3.00;;;1.57;;
27209;SDS011;14721;42.668;23.386;2024-01-10T01:05:54;2.50;;;1.43;;
27209;SDS011;14721;42.668;23.386;2024-01-10T01:08:19;6.00;;;1.73;;
27209;SDS011;14721;42.668;23.386;2024-01-10T01:11:04;5.57;;;2.00;;
27209;SDS011;14721;42.668;23.386;2024-01-10T01:13:44;2.97;;;1.43;;
27209;SDS011;14721;42.668;23.386;2024-01-10T01:16:30;3.17;;;1.20;;
27209;SDS011;14721;42.668;23.386;2024-01-10T01:22:21;3.83;;;2.40;;
27209;SDS011;14721;42.668;23.386;2024-01-10T01:24:50;4.47;;;1.87;;
27209;SDS011;14721;42.668;23.386;2024-01-10T01:27:25;3.83;;;1.73;;
27209;SDS011;14721;42.668;23.386;2024-01-10T01:33:00;4.13;;;1.80;;
27209;SDS011;14721;42.668;23.386;2024-01-10T01:35:38;5.60;;;1.57;;
27209;SDS011;14721;42.668;23.386;2024-01-10T01:38:14;5.30;;;1.83;;
27209;SDS011;14721;42.668;23.386;2024-01-10T01:40:42;5.47;;;1.93;;
27209;SDS011;14721;42.668;23.386;2024-01-10T01:43:22;7.97;;;2.47;;
27209;SDS011;14721;42.668;23.386;2024-01-10T01:45:55;3.53;;;1.73;;
27209;SDS011;14721;42.668;23.386;2024-01-10T01:48:25;3.57;;;1.90;;
27209;SDS011;14721;42.668;23.386;2024-01-10T01:50:52;5.03;;;2.27;;
27209;SDS011;14721;42.668;23.386;2024-01-10T01:53:21;8.77;;;2.03;;
27209;SDS011;14721;42.668;23.386;2024-01-10T01:56:00;7.40;;;3.33;;
27209;SDS011;14721;42.668;23.386;2024-01-10T01:58:41;5.03;;;2.07;;
27209;SDS011;14721;42.668;23.386;2024-01-10T02:01:16;3.80;;;1.80;;
27209;SDS011;14721;42.668;23.386;2024-01-10T02:04:07;3.77;;;2.07;;
27209;SDS011;14721;42.668;23.386;2024-01-10T02:06:37;1.70;;;1.17;;
27209;SDS011;14721;42.668;23.386;2024-01-10T02:09:12;4.67;;;1.60;;
27209;SDS011;14721;42.668;23.386;2024-01-10T02:11:39;1.97;;;1.57;;
27209;SDS011;14721;42.668;23.386;2024-01-10T02:14:06;2.90;;;1.50;;
27209;SDS011;14721;42.668;23.386;2024-01-10T02:16:44;3.03;;;1.87;;
27209;SDS011;14721;42.668;23.386;2024-01-10T02:19:20;4.63;;;1.37;;
27209;SDS011;14721;42.668;23.386;2024-01-10T02:21:57;4.57;;;2.23;;
27209;SDS011;14721;42.668;23.386;2024-01-10T02:24:33;5.23;;;1.67;;
27209;SDS011;14721;42.668;23.386;2024-01-10T02:27:06;2.27;;;1.37;;
27209;SDS011;14721;42.668;23.386;2024-01-10T02:29:33;4.40;;;2.13;;
27209;SDS011;14721;42.668;23.386;2024-01-10T02:31:59;3.67;;;1.43;;
27209;SDS011;14721;42.668;23.386;2024-01-10T02:34:25;3.27;;;1.67;;
27209;SDS011;14721;42.668;23.386;2024-01-10T02:36:50;4.47;;;1.53;;
27209;SDS011;14721;42.668;23.386;2024-01-10T02:39:26;4.50;;;1.77;;
27209;SDS011;14721;42.668;23.386;2024-01-10T02:42:19;3.47;;;1.77;;
27209;SDS011;14721;42.668;23.386;2024-01-10T02:45:07;3.53;;;1.50;;
27209;SDS011;14721;42.668;23.386;2024-01-10T02:47:45;7.23;;;1.40;;
27209;SDS011;14721;42.668;23.386;2024-01-10T02:50:50;2.07;;;1.83;;
27209;SDS011;14721;42.668;23.386;2024-01-10T02:53:24;7.63;;;1.50;;
27209;SDS011;14721;42.668;23.386;2024-01-10T02:56:00;8.57;;;2.03;;
27209;SDS011;14721;42.668;23.386;2024-01-10T02:58:33;3.07;;;2.53;;
27209;SDS011;14721;42.668;23.386;2024-01-10T03:01:04;4.90;;;2.00;;
27209;SDS011;14721;42.668;23.386;2024-01-10T03:04:03;3.47;;;2.20;;
27209;SDS011;14721;42.668;23.386;2024-01-10T03:06:37;5.20;;;2.43;;
27209;SDS011;14721;42.668;23.386;2024-01-10T03:09:12;3.57;;;2.40;;
27209;SDS011;14721;42.668;23.386;2024-01-10T03:11:50;3.73;;;1.63;;
27209;SDS011;14721;42.668;23.386;2024-01-10T03:14:15;4.83;;;1.70;;
27209;SDS011;14721;42.668;23.386;2024-01-10T03:20:17;6.10;;;2.13;;
27209;SDS011;14721;42.668;23.386;2024-01-10T03:23:07;3.57;;;2.30;;
27209;SDS011;14721;42.668;23.386;2024-01-10T03:25:47;3.00;;;1.57;;
27209;SDS011;14721;42.668;23.386;2024-01-10T03:31:46;2.67;;;1.80;;
27209;SDS011;14721;42.668;23.386;2024-01-10T03:34:12;4.87;;;2.00;;
27209;SDS011;14721;42.668;23.386;2024-01-10T03:36:55;7.50;;;2.67;;
27209;SDS011;14721;42.668;23.386;2024-01-10T03:39:33;5.83;;;2.53;;
27209;SDS011;14721;42.668;23.386;2024-01-10T03:46:01;6.33;;;2.63;;
27209;SDS011;14721;42.668;23.386;2024-01-10T03:48:47;7.03;;;3.03;;
27209;SDS011;14721;42.668;23.386;2024-01-10T03:51:26;5.53;;;2.83;;
27209;SDS011;14721;42.668;23.386;2024-01-10T03:54:32;7.40;;;3.33;;
27209;SDS011;14721;42.668;23.386;2024-01-10T03:57:05;4.03;;;2.13;;
27209;SDS011;14721;42.668;23.386;2024-01-10T03:59:31;6.20;;;2.53;;
27209;SDS011;14721;42.668;23.386;2024-01-10T04:01:58;6.30;;;2.93;;
27209;SDS011;14721;42.668;23.386;2024-01-10T04:04:25;4.47;;;2.10;;
27209;SDS011;14721;42.668;23.386;2024-01-10T04:06:51;5.13;;;2.10;;
27209;SDS011;14721;42.668;23.386;2024-01-10T04:09:17;6.83;;;2.63;;
27209;SDS011;14721;42.668;23.386;2024-01-10T04:11:50;2.90;;;1.50;;
27209;SDS011;14721;42.668;23.386;2024-01-10T04:14:35;5.10;;;2.57;;
27209;SDS011;14721;42.668;23.386;2024-01-10T04:17:24;4.27;;;2.33;;
27209;SDS011;14721;42.668;23.386;2024-01-10T04:20:00;3.37;;;1.63;;
27209;SDS011;14721;42.668;23.386;2024-01-10T04:22:29;7.87;;;2.57;;
27209;SDS011;14721;42.668;23.386;2024-01-10T04:24:57;8.40;;;3.40;;
27209;SDS011;14721;42.668;23.386;2024-01-10T04:27:24;6.63;;;2.73;;
27209;SDS011;14721;42.668;23.386;2024-01-10T04:29:49;4.83;;;2.87;;
27209;SDS011;14721;42.668;23.386;2024-01-10T04:32:20;2.77;;;1.77;;
27209;SDS011;14721;42.668;23.386;2024-01-10T04:34:56;3.80;;;2.27;;
27209;SDS011;14721;42.668;23.386;2024-01-10T04:37:23;3.07;;;1.60;;
27209;SDS011;14721;42.668;23.386;2024-01-10T04:39:49;5.13;;;2.50;;
27209;SDS011;14721;42.668;23.386;2024-01-10T04:42:23;3.83;;;2.23;;
27209;SDS011;14721;42.668;23.386;2024-01-10T04:45:12;6.87;;;1.83;;
27209;SDS011;14721;42.668;23.386;2024-01-10T04:47:46;4.73;;;1.60;;
27209;SDS011;14721;42.668;23.386;2024-01-10T04:50:17;3.63;;;1.80;;
27209;SDS011;14721;42.668;23.386;2024-01-10T04:52:45;3.87;;;2.23;;
27209;SDS011;14721;42.668;23.386;2024-01-10T04:55:19;3.13;;;2.00;;
27209;SDS011;14721;42.668;23.386;2024-01-10T04:57:57;5.03;;;1.87;;
27209;SDS011;14721;42.668;23.386;2024-01-10T05:00:31;2.53;;;1.80;;
27209;SDS011;14721;42.668;23.386;2024-01-10T05:03:05;9.53;;;2.27;;
27209;SDS011;14721;42.668;23.386;2024-01-10T05:05:33;6.10;;;2.90;;
27209;SDS011;14721;42.668;23.386;2024-01-10T05:08:02;6.37;;;2.07;;
27209;SDS011;14721;42.668;23.386;2024-01-10T05:10:51;3.37;;;1.83;;
27209;SDS011;14721;42.668;23.386;2024-01-10T05:13:32;5.70;;;2.37;;
27209;SDS011;14721;42.668;23.386;2024-01-10T05:16:05;3.97;;;2.27;;
27209;SDS011;14721;42.668;23.386;2024-01-10T05:25:28;9.23;;;4.57;;
27209;SDS011;14721;42.668;23.386;2024-01-10T05:28:16;7.67;;;3.10;;
27209;SDS011;14721;42.668;23.386;2024-01-10T05:30:52;6.90;;;3.33;;
27209;SDS011;14721;42.668;23.386;2024-01-10T05:33:24;8.20;;;2.40;;
27209;SDS011;14721;42.668;23.386;2024-01-10T05:35:50;2.53;;;2.07;;
27209;SDS011;14721;42.668;23.386;2024-01-10T05:38:20;11.47;;;4.67;;
27209;SDS011;14721;42.668;23.386;2024-01-10T05:41:18;11.50;;;4.00;;
27209;SDS011;14721;42.668;23.386;2024-01-10T05:43:46;11.83;;;4.33;;
27209;SDS011;14721;42.668;23.386;2024-01-10T05:46:12;6.17;;;2.47;;
27209;SDS011;14721;42.668;23.386;2024-01-10T05:48:37;6.17;;;2.87;;
27209;SDS011;14721;42.668;23.386;2024-01-10T05:51:04;4.40;;;2.43;;
27209;SDS011;14721;42.668;23.386;2024-01-10T05:53:32;6.50;;;2.37;;
27209;SDS011;14721;42.668;23.386;2024-01-10T05:55:58;11.00;;;2.40;;
27209;SDS011;14721;42.668;23.386;2024-01-10T05:58:23;6.47;;;3.63;;
27209;SDS011;14721;42.668;23.386;2024-01-10T06:00:52;11.50;;;3.40;;
27209;SDS011;14721;42.668;23.386;2024-01-10T06:03:17;10.53;;;3.33;;
27209;SDS011;14721;42.668;23.386;2024-01-10T06:05:46;8.50;;;4.07;;
27209;SDS011;14721;42.668;23.386;2024-01-10T06:08:15;10.13;;;4.63;;
27209;SDS011;14721;42.668;23.386;2024-01-10T06:10:43;9.00;;;3.77;;
27209;SDS011;14721;42.668;23.386;2024-01-10T06:13:08;6.53;;;3.70;;
27209;SDS011;14721;42.668;23.386;2024-01-10T06:15:34;7.33;;;2.87;;
27209;SDS011;14721;42.668;23.386;2024-01-10T06:18:00;5.10;;;3.43;;
27209;SDS011;14721;42.668;23.386;2024-01-10T06:20:28;6.17;;;2.70;;
27209;SDS011;14721;42.668;23.386;2024-01-10T06:22:53;2.20;;;1.20;;
27209;SDS011;14721;42.668;23.386;2024-01-10T06:25:20;3.03;;;1.83;;
27209;SDS011;14721;42.668;23.386;2024-01-10T06:27:46;5.77;;;2.27;;
27209;SDS011;14721;42.668;23.386;2024-01-10T06:30:12;10.33;;;3.40;;
27209;SDS011;14721;42.668;23.386;2024-01-10T06:32:37;8.63;;;3.60;;
27209;SDS011;14721;42.668;23.386;2024-01-10T06:35:05;6.30;;;3.43;;
27209;SDS011;14721;42.668;23.386;2024-01-10T06:37:51;5.97;;;2.70;;
27209;SDS011;14721;42.668;23.386;2024-01-10T06:40:34;12.53;;;7.07;;
27209;SDS011;14721;42.668;23.386;2024-01-10T06:43:15;10.73;;;4.63;;
27209;SDS011;14721;42.668;23.386;2024-01-10T06:45:44;3.03;;;2.27;;
27209;SDS011;14721;42.668;23.386;2024-01-10T06:48:09;1.97;;;1.67;;
27209;SDS011;14721;42.668;23.386;2024-01-10T06:50:35;5.03;;;2.30;;
27209;SDS011;14721;42.668;23.386;2024-01-10T06:53:04;6.23;;;3.40;;
27209;SDS011;14721;42.668;23.386;2024-01-10T06:55:30;17.97;;;5.43;;
27209;SDS011;14721;42.668;23.386;2024-01-10T06:58:02;11.80;;;5.43;;
27209;SDS011;14721;42.668;23.386;2024-01-10T07:00:37;8.20;;;5.03;;
27209;SDS011;14721;42.668;23.386;2024-01-10T07:03:10;9.53;;;3.43;;
27209;SDS011;14721;42.668;23.386;2024-01-10T07:05:37;10.33;;;4.87;;
27209;SDS011;14721;42.668;23.386;2024-01-10T07:08:03;12.37;;;4.97;;
27209;SDS011;14721;42.668;23.386;2024-01-10T07:10:29;5.70;;;3.27;;
27209;SDS011;14721;42.668;23.386;2024-01-10T07:12:55;11.07;;;4.63;;
27209;SDS011;14721;42.668;23.386;2024-01-10T07:18:56;7.97;;;3.67;;
27209;SDS011;14721;42.668;23.386;2024-01-10T07:21:29;8.37;;;3.43;;
27209;SDS011;14721;42.668;23.386;2024-01-10T07:23:54;4.20;;;2.60;;
27209;SDS011;14721;42.668;23.386;2024-01-10T07:29:19;6.73;;;3.47;;
27209;SDS011;14721;42.668;23.386;2024-01-10T07:32:09;6.30;;;2.17;;
27209;SDS011;14721;42.668;23.386;2024-01-10T07:34:39;7.53;;;3.80;;
27209;SDS011;14721;42.668;23.386;2024-01-10T07:37:05;10.03;;;4.87;;
27209;SDS011;14721;42.668;23.386;2024-01-10T07:39:51;12.00;;;5.13;;
27209;SDS011;14721;42.668;23.386;2024-01-10T07:42:42;14.50;;;5.60;;
27209;SDS011;14721;42.668;23.386;2024-01-10T07:45:20;12.10;;;4.57;;
27209;SDS011;14721;42.668;23.386;2024-01-10T07:51:03;10.93;;;4.40;;
27209;SDS011;14721;42.668;23.386;2024-01-10T07:53:29;12.23;;;5.57;;
27209;SDS011;14721;42.668;23.386;2024-01-10T07:56:01;10.17;;;4.90;;
27209;SDS011;14721;42.668;23.386;2024-01-10T07:58:34;14.67;;;5.67;;
27209;SDS011;14721;42.668;23.386;2024-01-10T08:01:24;13.90;;;5.70;;
27209;SDS011;14721;42.668;23.386;2024-01-10T08:03:50;13.50;;;4.27;;
27209;SDS011;14721;42.668;23.386;2024-01-10T08:06:18;11.53;;;5.10;;
27209;SDS011;14721;42.668;23.386;2024-01-10T08:08:43;10.97;;;5.10;;
27209;SDS011;14721;42.668;23.386;2024-01-10T08:11:10;18.93;;;5.63;;
27209;SDS011;14721;42.668;23.386;2024-01-10T08:13:35;9.43;;;4.07;;
27209;SDS011;14721;42.668;23.386;2024-01-10T08:16:03;11.03;;;4.40;;
27209;SDS011;14721;42.668;23.386;2024-01-10T08:18:29;14.37;;;5.50;;
27209;SDS011;14721;42.668;23.386;2024-01-10T08:20:55;9.07;;;3.97;;
27209;SDS011;14721;42.668;23.386;2024-01-10T08:23:21;13.30;;;4.80;;
27209;SDS011;14721;42.668;23.386;2024-01-10T08:25:48;4.37;;;2.73;;
27209;SDS011;14721;42.668;23.386;2024-01-10T08:28:16;17.13;;;3.73;;
27209;SDS011;14721;42.668;23.386;2024-01-10T08:30:42;5.37;;;2.10;;
27209;SDS011;14721;42.668;23.386;2024-01-10T08:33:09;5.77;;;2.83;;
27209;SDS011;14721;42.668;23.386;2024-01-10T08:35:37;4.57;;;3.00;;
27209;SDS011;14721;42.668;23.386;2024-01-10T08:38:04;3.90;;;1.80;;
27209;SDS011;14721;42.668;23.386;2024-01-10T08:40:29;3.43;;;1.93;;
27209;SDS011;14721;42.668;23.386;2024-01-10T08:42:57;2.77;;;1.87;;
27209;SDS011;14721;42.668;23.386;2024-01-10T08:45:23;2.47;;;1.10;;
27209;SDS011;14721;42.668;23.386;2024-01-10T08:47:49;2.17;;;1.13;;
27209;SDS011;14721;42.668;23.386;2024-01-10T08:50:18;3.17;;;1.50;;
27209;SDS011;14721;42.668;23.386;2024-01-10T08:52:43;3.60;;;1.43;;
27209;SDS011;14721;42.668;23.386;2024-01-10T08:55:09;4.80;;;1.60;;
27209;SDS011;14721;42.668;23.386;2024-01-10T08:57:34;3.40;;;1.87;;
27209;SDS011;14721;42.668;23.386;2024-01-10T09:00:20;5.70;;;2.83;;
27209;SDS011;14721;42.668;23.386;2024-01-10T09:02:49;4.97;;;2.63;;
27209;SDS011;14721;42.668;23.386;2024-01-10T09:05:34;5.90;;;2.03;;
27209;SDS011;14721;42.668;23.386;2024-01-10T09:08:00;5.73;;;2.90;;
27209;SDS011;14721;42.668;23.386;2024-01-10T09:10:25;6.50;;;3.10;;
27209;SDS011;14721;42.668;23.386;2024-01-10T09:12:57;8.27;;;3.07;;
27209;SDS011;14721;42.668;23.386;2024-01-10T09:15:23;10.53;;;4.10;;
27209;SDS011;14721;42.668;23.386;2024-01-10T09:17:59;12.20;;;4.60;;
27209;SDS011;14721;42.668;23.386;2024-01-10T09:20:42;6.67;;;4.63;;
27209;SDS011;14721;42.668;23.386;2024-01-10T09:26:39;12.30;;;4.57;;
27209;SDS011;14721;42.668;23.386;2024-01-10T09:29:19;5.97;;;3.40;;
27209;SDS011;14721;42.668;23.386;2024-01-10T09:31:47;13.83;;;3.77;;
27209;SDS011;14721;42.668;23.386;2024-01-10T09:34:13;8.33;;;3.40;;
27209;SDS011;14721;42.668;23.386;2024-01-10T09:36:42;7.77;;;3.40;;
27209;SDS011;14721;42.668;23.386;2024-01-10T09:39:25;9.13;;;3.87;;
27209;SDS011;14721;42.668;23.386;2024-01-10T09:42:15;5.57;;;3.10;;
27209;SDS011;14721;42.668;23.386;2024-01-10T09:44:53;7.10;;;3.23;;
27209;SDS011;14721;42.668;23.386;2024-01-10T09:47:19;7.17;;;3.17;;
27209;SDS011;14721;42.668;23.386;2024-01-10T09:49:46;14.70;;;3.50;;
27209;SDS011;14721;42.668;23.386;2024-01-10T09:52:25;6.87;;;2.80;;
27209;SDS011;14721;42.668;23.386;2024-01-10T09:54:56;9.93;;;4.37;;
27209;SDS011;14721;42.668;23.386;2024-01-10T09:57:24;7.60;;;2.60;;
27209;SDS011;14721;42.668;23.386;2024-01-10T10:03:16;13.20;;;4.63;;
27209;SDS011;14721;42.668;23.386;2024-01-10T10:05:54;8.97;;;3.10;;
27209;SDS011;14721;42.668;23.386;2024-01-10T10:08:22;7.23;;;4.03;;
27209;SDS011;14721;42.668;23.386;2024-01-10T10:10:50;14.67;;;4.50;;
27209;SDS011;14721;42.668;23.386;2024-01-10T10:13:26;7.53;;;4.43;;
27209;SDS011;14721;42.668;23.386;2024-01-10T10:16:03;10.77;;;4.57;;
27209;SDS011;14721;42.668;23.386;2024-01-10T10:18:33;5.47;;;2.83;;
27209;SDS011;14721;42.668;23.386;2024-01-10T10:21:12;13.97;;;4.60;;
27209;SDS011;14721;42.668;23.386;2024-01-10T10:26:32;9.17;;;4.07;;
27209;SDS011;14721;42.668;23.386;2024-01-10T10:29:08;8.47;;;3.90;;
27209;SDS011;14721;42.668;23.386;2024-01-10T10:31:39;8.13;;;3.37;;
27209;SDS011;14721;42.668;23.386;2024-01-10T10:34:12;5.57;;;2.67;;
27209;SDS011;14721;42.668;23.386;2024-01-10T10:36:38;10.03;;;3.93;;
27209;SDS011;14721;42.668;23.386;2024-01-10T10:39:03;8.50;;;3.50;;
27209;SDS011;14721;42.668;23.386;2024-01-10T10:41:29;5.03;;;3.20;;
27209;SDS011;14721;42.668;23.386;2024-01-10T10:44:10;9.20;;;4.10;;
27209;SDS011;14721;42.668;23.386;2024-01-10T10:46:39;10.80;;;5.20;;
27209;SDS011;14721;42.668;23.386;2024-01-10T10:49:11;13.00;;;4.57;;
27209;SDS011;14721;42.668;23.386;2024-01-10T10:51:39;7.73;;;3.07;;
27209;SDS011;14721;42.668;23.386;2024-01-10T10:54:07;8.27;;;3.47;;
27209;SDS011;14721;42.668;23.386;2024-01-10T10:56:34;8.43;;;3.30;;
27209;SDS011;14721;42.668;23.386;2024-01-10T10:59:14;7.60;;;4.00;;
27209;SDS011;14721;42.668;23.386;2024-01-10T11:01:46;7.37;;;3.73;;
27209;SDS011;14721;42.668;23.386;2024-01-10T11:04:34;10.20;;;3.97;;
27209;SDS011;14721;42.668;23.386;2024-01-10T11:07:03;8.13;;;3.97;;
27209;SDS011;14721;42.668;23.386;2024-01-10T11:09:30;13.77;;;3.77;;
27209;SDS011;14721;42.668;23.386;2024-01-10T11:15:09;9.23;;;4.67;;
27209;SDS011;14721;42.668;23.386;2024-01-10T11:23:37;9.93;;;4.03;;
27209;SDS011;14721;42.668;23.386;2024-01-10T11:26:06;19.90;;;4.83;;
27209;SDS011;14721;42.668;23.386;2024-01-10T11:28:33;10.43;;;4.33;;
27209;SDS011;14721;42.668;23.386;2024-01-10T11:31:03;17.13;;;4.73;;
27209;SDS011;14721;42.668;23.386;2024-01-10T11:33:35;12.93;;;5.60;;
27209;SDS011;14721;42.668;23.386;2024-01-10T11:38:47;13.23;;;4.13;;
27209;SDS011;14721;42.668;23.386;2024-01-10T11:46:54;7.43;;;3.73;;
27209;SDS011;14721;42.668;23.386;2024-01-10T11:49:24;9.93;;;4.77;;
27209;SDS011;14721;42.668;23.386;2024-01-10T11:51:58;13.97;;;5.60;;
27209;SDS011;14721;42.668;23.386;2024-01-10T11:54:43;12.43;;;4.07;;
27209;SDS011;14721;42.668;23.386;2024-01-10T11:59:37;18.83;;;5.77;;
27209;SDS011;14721;42.668;23.386;2024-01-10T12:02:03;12.13;;;5.70;;
27209;SDS011;14721;42.668;23.386;2024-01-10T12:04:31;13.33;;;5.40;;
27209;SDS011;14721;42.668;23.386;2024-01-10T12:06:57;19.30;;;6.77;;
27209;SDS011;14721;42.668;23.386;2024-01-10T12:09:23;14.80;;;5.80;;
27209;SDS011;14721;42.668;23.386;2024-01-10T12:11:59;13.43;;;6.20;;
27209;SDS011;14721;42.668;23.386;2024-01-10T12:14:30;21.27;;;7.33;;
27209;SDS011;14721;42.668;23.386;2024-01-10T12:16:58;14.93;;;6.60;;
27209;SDS011;14721;42.668;23.386;2024-01-10T12:19:32;15.50;;;6.93;;
27209;SDS011;14721;42.668;23.386;2024-01-10T12:22:10;16.03;;;8.10;;
27209;SDS011;14721;42.668;23.386;2024-01-10T12:24:54;16.80;;;7.40;;
27209;SDS011;14721;42.668;23.386;2024-01-10T12:27:51;14.23;;;5.90;;
27209;SDS011;14721;42.668;23.386;2024-01-10T12:30:17;9.30;;;5.50;;
27209;SDS011;14721;42.668;23.386;2024-01-10T12:32:43;18.00;;;7.17;;
27209;SDS011;14721;42.668;23.386;2024-01-10T12:35:09;11.97;;;6.53;;
27209;SDS011;14721;42.668;23.386;2024-01-10T12:37:52;14.63;;;6.20;;
27209;SDS011;14721;42.668;23.386;2024-01-10T12:40:20;14.43;;;6.20;;
27209;SDS011;14721;42.668;23.386;2024-01-10T12:43:03;11.13;;;5.47;;
27209;SDS011;14721;42.668;23.386;2024-01-10T12:45:37;8.13;;;4.83;;
27209;SDS011;14721;42.668;23.386;2024-01-10T12:48:13;15.63;;;5.57;;
27209;SDS011;14721;42.668;23.386;2024-01-10T12:50:42;12.57;;;5.20;;
27209;SDS011;14721;42.668;23.386;2024-01-10T12:53:10;8.80;;;4.60;;
27209;SDS011;14721;42.668;23.386;2024-01-10T12:55:36;10.10;;;5.17;;
27209;SDS011;14721;42.668;23.386;2024-01-10T12:58:04;15.00;;;5.77;;
27209;SDS011;14721;42.668;23.386;2024-01-10T13:00:30;9.07;;;4.77;;
27209;SDS011;14721;42.668;23.386;2024-01-10T13:03:03;11.47;;;5.47;;
27209;SDS011;14721;42.668;23.386;2024-01-10T13:05:30;12.07;;;4.80;;
27209;SDS011;14721;42.668;23.386;2024-01-10T13:07:56;11.53;;;6.30;;
27209;SDS011;14721;42.668;23.386;2024-01-10T13:10:32;16.43;;;5.20;;
27209;SDS011;14721;42.668;23.386;2024-01-10T13:13:00;13.43;;;4.77;;
27209;SDS011;14721;42.668;23.386;2024-01-10T13:15:47;10.87;;;5.57;;
27209;SDS011;14721;42.668;23.386;2024-01-10T13:18:13;10.67;;;5.17;;
27209;SDS011;14721;42.668;23.386;2024-01-10T13:21:04;11.47;;;5.70;;
27209;SDS011;14721;42.668;23.386;2024-01-10T13:23:43;9.30;;;6.00;;
27209;SDS011;14721;42.668;23.386;2024-01-10T13:26:15;9.77;;;5.13;;
27209;SDS011;14721;42.668;23.386;2024-01-10T13:35:08;13.27;;;5.97;;
27209;SDS011;14721;42.668;23.386;2024-01-10T13:38:30;11.13;;;5.40;;
27209;SDS011;14721;42.668;23.386;2024-01-10T13:44:11;13.63;;;5.13;;
27209;SDS011;14721;42.668;23.386;2024-01-10T13:47:16;12.30;;;5.20;;
27209;SDS011;14721;42.668;23.386;2024-01-10T13:49:57;19.40;;;5.90;;
27209;SDS011;14721;42.668;23.386;2024-01-10T13:52:43;13.40;;;6.30;;
27209;SDS011;14721;42.668;23.386;2024-01-10T13:55:14;12.77;;;5.50;;
27209;SDS011;14721;42.668;23.386;2024-01-10T13:58:07;17.23;;;7.00;;
27209;SDS011;14721;42.668;23.386;2024-01-10T14:00:46;15.77;;;5.97;;
27209;SDS011;14721;42.668;23.386;2024-01-10T14:03:32;13.90;;;5.57;;
27209;SDS011;14721;42.668;23.386;2024-01-10T14:05:58;15.53;;;6.33;;
27209;SDS011;14721;42.668;23.386;2024-01-10T14:08:26;11.07;;;6.57;;
27209;SDS011;14721;42.668;23.386;2024-01-10T14:11:03;9.87;;;5.87;;
27209;SDS011;14721;42.668;23.386;2024-01-10T14:13:51;15.80;;;6.33;;
27209;SDS011;14721;42.668;23.386;2024-01-10T14:16:26;12.13;;;6.57;;
27209;SDS011;14721;42.668;23.386;2024-01-10T14:19:04;12.73;;;5.93;;
27209;SDS011;14721;42.668;23.386;2024-01-10T14:21:40;12.67;;;6.77;;
27209;SDS011;14721;42.668;23.386;2024-01-10T14:24:08;14.77;;;6.53;;
27209;SDS011;14721;42.668;23.386;2024-01-10T14:26:34;14.13;;;5.73;;
27209;SDS011;14721;42.668;23.386;2024-01-10T14:29:00;13.23;;;6.93;;
27209;SDS011;14721;42.668;23.386;2024-01-10T14:31:28;22.50;;;9.07;;
27209;SDS011;14721;42.668;23.386;2024-01-10T14:33:54;14.63;;;6.90;;
27209;SDS011;14721;42.668;23.386;2024-01-10T14:36:20;17.33;;;7.10;;
27209;SDS011;14721;42.668;23.386;2024-01-10T14:38:48;19.43;;;8.27;;
27209;SDS011;14721;42.668;23.386;2024-01-10T14:41:24;11.33;;;5.40;;
27209;SDS011;14721;42.668;23.386;2024-01-10T14:43:51;11.97;;;6.03;;
27209;SDS011;14721;42.668;23.386;2024-01-10T14:46:16;13.97;;;6.87;;
27209;SDS011;14721;42.668;23.386;2024-01-10T14:48:42;15.47;;;7.17;;
27209;SDS011;14721;42.668;23.386;2024-01-10T14:51:07;10.83;;;5.93;;
27209;SDS011;14721;42.668;23.386;2024-01-10T14:53:36;10.63;;;5.87;;
27209;SDS011;14721;42.668;23.386;2024-01-10T14:56:01;20.80;;;5.67;;
27209;SDS011;14721;42.668;23.386;2024-01-10T14:58:30;9.70;;;4.90;;
27209;SDS011;14721;42.668;23.386;2024-01-10T15:00:55;13.63;;;5.10;;
27209;SDS011;14721;42.668;23.386;2024-01-10T15:03:21;13.57;;;6.60;;
27209;SDS011;14721;42.668;23.386;2024-01-10T15:05:51;19.77;;;6.43;;
27209;SDS011;14721;42.668;23.386;2024-01-10T15:08:19;14.23;;;6.67;;
27209;SDS011;14721;42.668;23.386;2024-01-10T15:10:45;14.23;;;7.03;;
27209;SDS011;14721;42.668;23.386;2024-01-10T15:13:10;19.77;;;7.33;;
27209;SDS011;14721;42.668;23.386;2024-01-10T15:15:42;16.37;;;6.80;;
27209;SDS011;14721;42.668;23.386;2024-01-10T15:18:08;14.17;;;6.77;;
27209;SDS011;14721;42.668;23.386;2024-01-10T15:20:46;22.57;;;9.13;;
27209;SDS011;14721;42.668;23.386;2024-01-10T15:23:14;21.03;;;8.43;;
27209;SDS011;14721;42.668;23.386;2024-01-10T15:25:44;22.17;;;7.20;;
27209;SDS011;14721;42.668;23.386;2024-01-10T15:28:24;16.50;;;6.13;;
27209;SDS011;14721;42.668;23.386;2024-01-10T15:30:50;18.80;;;7.57;;
27209;SDS011;14721;42.668;23.386;2024-01-10T15:33:18;20.13;;;7.83;;
27209;SDS011;14721;42.668;23.386;2024-01-10T15:36:11;16.07;;;8.27;;
27209;SDS011;14721;42.668;23.386;2024-01-10T15:38:38;18.63;;;8.77;;
27209;SDS011;14721;42.668;23.386;2024-01-10T15:41:08;22.77;;;10.27;;
27209;SDS011;14721;42.668;23.386;2024-01-10T15:43:41;25.27;;;10.50;;
27209;SDS011;14721;42.668;23.386;2024-01-10T15:46:17;30.17;;;8.87;;
27209;SDS011;14721;42.668;23.386;2024-01-10T15:48:50;22.53;;;8.57;;
27209;SDS011;14721;42.668;23.386;2024-01-10T15:51:26;20.30;;;9.83;;
27209;SDS011;14721;42.668;23.386;2024-01-10T15:53:57;21.63;;;10.73;;
27209;SDS011;14721;42.668;23.386;2024-01-10T15:56:24;23.53;;;9.87;;
27209;SDS011;14721;42.668;23.386;2024-01-10T15:58:51;16.77;;;8.27;;
27209;SDS011;14721;42.668;23.386;2024-01-10T16:01:24;21.67;;;9.97;;
27209;SDS011;14721;42.668;23.386;2024-01-10T16:03:53;26.80;;;9.53;;
27209;SDS011;14721;42.668;23.386;2024-01-10T16:06:19;18.77;;;9.07;;
27209;SDS011;14721;42.668;23.386;2024-01-10T16:08:45;23.00;;;10.30;;
27209;SDS011;14721;42.668;23.386;2024-01-10T16:11:18;21.93;;;9.13;;
27209;SDS011;14721;42.668;23.386;2024-01-10T16:13:49;17.83;;;8.93;;
27209;SDS011;14721;42.668;23.386;2024-01-10T16:16:30;21.90;;;9.57;;
27209;SDS011;14721;42.668;23.386;2024-01-10T16:18:59;22.17;;;9.17;;
27209;SDS011;14721;42.668;23.386;2024-01-10T16:21:55;19.37;;;9.77;;
27209;SDS011;14721;42.668;23.386;2024-01-10T16:24:23;19.27;;;9.07;;